Pagina principale
METAR-TAF:

METAR-TAF

Aeroporti :

Pécs, Ungheria

latitudine: 46-06N, longitudine: 018-14E, altezza: 201 m

Osservazione

Il bollettino è stato emesso 57 minuti fa, alle 08:45 UTC
Vento 2 kt da est
Temperature 17°C
Umidità 45%
Pressione 1022 hPa
Visibilità 10 km o più
nessuna nube inferiore a 1500 m e nessun cumulonembo

METAR: LHPP 170845Z 10002KT CAVOK 17/05 Q1022

Ora: 11:42 (09:42 UTC)

Previsione

Il bollettino è stato emesso 1 ora e 27 minuti fa, alle 08:15 UTC
Previsione valida dal 17 alle 09 UTC al 17 alle 18 UTC
Vento 6 kt da est
Visibilità 10 km o più
nessuna nube inferiore a 1500 m e nessun cumulonembo
Evoluzione graduale
dal 17 alle 16 UTC al 17 alle 18 UTC
Vento 3 kt da direzioni variabili

TAF: LHPP 170815Z 1709/1718 09006KT CAVOK BECMG 1716/1718 VRB03KT

Osservazioni e previsioni meteorologiche di più di 4000 aeroporti (messaggi METAR e TAF).

Le stazioni disponibili sono rappresentate dai dischi gialli e rossi sulla carta.

Puntare il mouse per vedere il nome della stazione.

Clicca sopra per visualizzare le osservazioni e previsioni meteorologiche.

Per cambiare la mappa : fare clic sui pulsanti verdi con una croce nera per ingrandire, il pulsante verde con un trattino per diminuire, o sulla freccia verde per le mappe adiacenti.


METAR-TAF: